Time;durP1;ratioP1;P1;durP2;ratioP2;P2;SDS_P1;SDS_P2;PMS_P1;PMS_P2;Temp;Humidity;BMP_temperature;BMP_pressure;BME280_temperature;BME280_humidity;BME280_pressure;Samples;Min_cycle;Max_cycle;Signal;HPM_P1;HPM_P2
2023/07/30 00:00:40;;;;;;;4.90;2.20;;;;;;;16.62;100.00;100692.81;5006246;28;20394;-69
2023/07/30 00:03:06;;;;;;;6.38;2.17;;;;;;;16.62;100.00;100686.78;5037510;28;20033;-69
2023/07/30 00:05:31;;;;;;;3.25;2.17;;;;;;;16.62;100.00;100697.25;5035402;28;20453;-71
2023/07/30 00:07:57;;;;;;;3.65;1.98;;;;;;;16.61;100.00;100682.53;5009815;28;20041;-68
2023/07/30 00:10:22;;;;;;;7.72;2.63;;;;;;;16.57;100.00;100692.59;5032772;28;20036;-69
2023/07/30 00:12:48;;;;;;;6.72;2.20;;;;;;;16.51;100.00;100688.16;5021976;28;20040;-69
2023/07/30 00:15:13;;;;;;;5.05;2.00;;;;;;;16.43;100.00;100694.38;5027993;28;20033;-69
2023/07/30 00:17:39;;;;;;;5.18;2.50;;;;;;;16.44;100.00;100690.72;5023837;28;20045;-68
2023/07/30 00:20:07;;;;;;;3.42;1.80;;;;;;;16.45;100.00;100688.94;5042368;28;20044;-69
2023/07/30 00:22:33;;;;;;;6.15;2.33;;;;;;;16.41;100.00;100693.75;5042842;28;20033;-69
2023/07/30 00:24:58;;;;;;;3.10;1.90;;;;;;;16.38;100.00;100688.91;5024774;28;20522;-69
2023/07/30 00:27:24;;;;;;;6.25;2.38;;;;;;;16.37;100.00;100689.09;5021625;28;20498;-69
2023/07/30 00:29:49;;;;;;;4.45;1.70;;;;;;;16.33;100.00;100689.50;5008744;28;20033;-69
2023/07/30 00:32:16;;;;;;;3.13;1.70;;;;;;;16.31;100.00;100695.94;5019370;28;20060;-69
2023/07/30 00:34:42;;;;;;;5.80;2.13;;;;;;;16.28;100.00;100693.72;5017772;28;20038;-69
2023/07/30 00:37:08;;;;;;;5.47;2.30;;;;;;;16.27;100.00;100689.47;5003197;28;20688;-69
2023/07/30 00:39:33;;;;;;;3.20;1.83;;;;;;;16.24;100.00;100695.91;5036061;28;20020;-69
2023/07/30 00:41:59;;;;;;;4.47;2.15;;;;;;;16.20;100.00;100688.63;5019892;28;20040;-69
2023/07/30 00:44:25;;;;;;;5.38;2.25;;;;;;;16.18;100.00;100690.66;5006811;28;20128;-68
2023/07/30 00:46:51;;;;;;;5.65;2.25;;;;;;;16.17;100.00;100696.91;5019982;28;20099;-69
2023/07/30 00:49:18;;;;;;;4.78;2.33;;;;;;;16.15;100.00;100691.84;5020192;28;20030;-69
2023/07/30 00:51:45;;;;;;;6.82;2.25;;;;;;;16.13;100.00;100689.44;5010704;28;20037;-68
2023/07/30 00:54:11;;;;;;;4.30;2.05;;;;;;;16.08;100.00;100688.41;5024059;28;20659;-69
2023/07/30 00:56:37;;;;;;;7.93;2.10;;;;;;;16.05;100.00;100692.22;5008777;28;20479;-69
2023/07/30 00:59:03;;;;;;;7.10;2.40;;;;;;;16.02;100.00;100700.44;5016087;28;20060;-68
2023/07/30 01:01:32;;;;;;;6.63;2.28;;;;;;;16.02;100.00;100705.66;5030796;28;20065;-69
2023/07/30 01:03:58;;;;;;;7.65;2.35;;;;;;;16.00;100.00;100697.22;4998134;28;20971;-69
2023/07/30 01:06:23;;;;;;;8.10;2.55;;;;;;;15.95;100.00;100703.03;5027113;28;20048;-69
2023/07/30 01:08:49;;;;;;;5.60;2.33;;;;;;;15.95;100.00;100704.81;5026887;28;20029;-69
2023/07/30 01:11:15;;;;;;;11.13;3.15;;;;;;;15.93;100.00;100706.84;5007752;28;20071;-69
2023/07/30 01:13:42;;;;;;;9.65;2.60;;;;;;;15.88;100.00;100707.44;5026984;28;20033;-69
2023/07/30 01:16:08;;;;;;;7.25;2.33;;;;;;;15.81;100.00;100716.22;5019984;28;20415;-69
2023/07/30 01:18:33;;;;;;;6.20;3.10;;;;;;;15.80;100.00;100715.41;5044132;28;20041;-69
2023/07/30 01:20:59;;;;;;;6.88;2.20;;;;;;;15.79;100.00;100713.00;5021518;28;20072;-69
2023/07/30 01:23:26;;;;;;;4.35;2.30;;;;;;;15.77;100.00;100715.81;5014654;28;20041;-68
2023/07/30 01:26:03;;;;;;;6.95;3.10;;;;;;;15.75;100.00;100716.00;5012117;28;20146;-69
2023/07/30 01:28:36;;;;;;;4.18;2.60;;;;;;;15.75;100.00;100712.59;5042338;28;20060;-69
2023/07/30 01:31:03;;;;;;;4.10;2.58;;;;;;;15.75;100.00;100715.19;5038042;28;20037;-69
2023/07/30 01:33:29;;;;;;;3.80;2.28;;;;;;;15.71;100.00;100722.56;5020922;28;20060;-69
2023/07/30 01:35:57;;;;;;;3.97;2.30;;;;;;;15.72;100.00;100718.16;5036935;28;20091;-69
2023/07/30 01:38:23;;;;;;;5.47;2.33;;;;;;;15.72;100.00;100724.19;5021296;28;20036;-69
2023/07/30 01:40:48;;;;;;;4.97;2.10;;;;;;;15.69;100.00;100724.59;5023318;28;20029;-68
2023/07/30 01:43:14;;;;;;;4.97;2.67;;;;;;;15.67;100.00;100726.56;5011502;28;20581;-68
2023/07/30 01:45:40;;;;;;;3.97;2.25;;;;;;;15.65;100.00;100731.19;5004900;28;20037;-69
2023/07/30 01:48:06;;;;;;;7.78;2.22;;;;;;;15.60;100.00;100736.19;5012893;28;20437;-69
2023/07/30 01:50:31;;;;;;;3.95;2.45;;;;;;;15.51;100.00;100737.31;5021618;28;20040;-71
2023/07/30 01:52:57;;;;;;;4.82;2.30;;;;;;;15.43;100.00;100735.66;5027519;28;20498;-69
2023/07/30 01:55:22;;;;;;;7.07;2.15;;;;;;;15.43;100.00;100740.06;5022083;28;20033;-69
2023/07/30 01:57:48;;;;;;;5.38;2.42;;;;;;;15.41;100.00;100734.19;5012764;28;20048;-69
2023/07/30 02:00:13;;;;;;;6.43;2.28;;;;;;;15.38;100.00;100733.59;5024346;28;20032;-69
2023/07/30 02:02:39;;;;;;;6.15;2.45;;;;;;;15.37;100.00;100737.22;5020566;28;20048;-69
2023/07/30 02:05:04;;;;;;;7.28;2.22;;;;;;;15.38;100.00;100732.78;5021176;28;21196;-69
2023/07/30 02:07:30;;;;;;;6.97;2.40;;;;;;;15.36;100.00;100737.41;5019886;28;20526;-69
2023/07/30 02:09:56;;;;;;;7.90;2.00;;;;;;;15.33;100.00;100732.53;5018942;28;20045;-69
2023/07/30 02:12:22;;;;;;;11.90;3.30;;;;;;;15.30;100.00;100738.16;5031968;28;20495;-69
2023/07/30 02:14:47;;;;;;;7.65;2.45;;;;;;;15.31;100.00;100735.38;5038293;28;20021;-69
2023/07/30 02:17:13;;;;;;;6.40;2.60;;;;;;;15.27;100.00;100741.13;5023009;28;20032;-69
2023/07/30 02:19:38;;;;;;;7.47;2.67;;;;;;;15.21;100.00;100731.44;5021462;28;20037;-69
2023/07/30 02:22:04;;;;;;;5.00;1.98;;;;;;;15.15;100.00;100728.59;5002225;28;20722;-69
2023/07/30 02:24:29;;;;;;;5.25;1.85;;;;;;;15.17;100.00;100729.19;5003285;28;20032;-69
2023/07/30 02:26:55;;;;;;;7.03;2.40;;;;;;;15.19;100.00;100723.78;5022644;28;20052;-69
2023/07/30 02:29:20;;;;;;;6.63;2.40;;;;;;;15.17;100.00;100726.59;5024581;28;20028;-69
2023/07/30 02:31:46;;;;;;;6.82;2.25;;;;;;;15.13;100.00;100727.97;5020837;28;20080;-69
2023/07/30 02:34:11;;;;;;;5.57;2.35;;;;;;;15.10;100.00;100728.31;5026994;28;20032;-69
2023/07/30 02:36:37;;;;;;;7.10;2.70;;;;;;;15.10;100.00;100730.13;5020704;28;20090;-69
2023/07/30 02:39:02;;;;;;;5.88;2.35;;;;;;;15.09;100.00;100733.75;5032463;28;20033;-69
2023/07/30 02:41:28;;;;;;;5.50;2.35;;;;;;;15.07;100.00;100728.72;5020972;28;20048;-69
2023/07/30 02:43:53;;;;;;;8.55;3.17;;;;;;;15.02;100.00;100735.50;5022577;28;20403;-69
2023/07/30 02:46:19;;;;;;;10.43;2.28;;;;;;;14.98;100.00;100729.84;5010875;28;20036;-69
2023/07/30 02:48:45;;;;;;;8.65;2.58;;;;;;;14.99;100.00;100736.66;5037929;28;20040;-69
2023/07/30 02:51:10;;;;;;;8.77;3.22;;;;;;;14.92;100.00;100741.84;5020900;28;20040;-69
2023/07/30 02:53:36;;;;;;;6.43;2.72;;;;;;;14.91;100.00;100732.38;5008021;28;20040;-69
2023/07/30 02:56:01;;;;;;;4.65;2.30;;;;;;;14.89;100.00;100736.97;5020713;28;20037;-69
2023/07/30 02:58:27;;;;;;;7.82;2.33;;;;;;;14.89;100.00;100738.78;5022485;28;20037;-69
2023/07/30 03:00:52;;;;;;;6.35;2.83;;;;;;;14.84;100.00;100736.72;5022209;28;20048;-69
2023/07/30 03:03:18;;;;;;;6.47;2.55;;;;;;;14.83;100.00;100740.34;5020516;28;20039;-69
2023/07/30 03:05:43;;;;;;;7.88;2.63;;;;;;;14.77;100.00;100734.06;5007058;28;20059;-68
2023/07/30 03:08:09;;;;;;;8.80;2.67;;;;;;;14.73;100.00;100742.41;5018545;28;20041;-69
2023/07/30 03:10:36;;;;;;;9.70;3.17;;;;;;;14.75;100.00;100740.47;5021200;28;20026;-69
2023/07/30 03:13:02;;;;;;;7.63;2.90;;;;;;;14.82;100.00;100736.09;5025624;28;20026;-69
2023/07/30 03:15:27;;;;;;;8.02;2.45;;;;;;;14.77;100.00;100741.88;5018997;28;20094;-69
2023/07/30 03:17:53;;;;;;;11.50;3.28;;;;;;;14.74;100.00;100750.06;5039425;28;20044;-69
2023/07/30 03:20:18;;;;;;;6.03;2.45;;;;;;;14.73;100.00;100750.25;5023090;28;20445;-69
2023/07/30 03:22:44;;;;;;;8.98;2.55;;;;;;;14.68;100.00;100755.22;5034627;28;20037;-69
2023/07/30 03:25:09;;;;;;;7.55;2.60;;;;;;;14.64;100.00;100751.38;5019311;28;20032;-69
2023/07/30 03:27:35;;;;;;;12.52;3.25;;;;;;;14.64;100.00;100756.59;5020754;28;20084;-69
2023/07/30 03:30:01;;;;;;;6.90;2.92;;;;;;;14.59;100.00;100759.75;5020679;28;20398;-69
2023/07/30 03:32:26;;;;;;;16.02;3.08;;;;;;;14.74;100.00;100764.94;5037533;28;20032;-69
2023/07/30 03:34:52;;;;;;;10.63;2.83;;;;;;;14.66;100.00;100760.63;5019240;28;20529;-68
2023/07/30 03:37:19;;;;;;;6.75;2.88;;;;;;;14.64;100.00;100767.03;5037639;28;20068;-69
2023/07/30 03:39:44;;;;;;;10.68;2.60;;;;;;;14.65;100.00;100755.59;5018689;28;20065;-68
2023/07/30 03:42:10;;;;;;;11.00;2.88;;;;;;;14.62;100.00;100759.38;5039477;28;20091;-69
2023/07/30 03:44:36;;;;;;;8.07;2.53;;;;;;;14.62;100.00;100759.38;5019111;28;20555;-69
2023/07/30 03:47:01;;;;;;;10.93;3.10;;;;;;;14.67;100.00;100764.84;5015713;28;20040;-69
2023/07/30 03:49:27;;;;;;;6.30;3.00;;;;;;;14.68;100.00;100763.84;5024597;28;20029;-68
2023/07/30 03:51:52;;;;;;;7.90;2.63;;;;;;;14.69;100.00;100759.44;5007063;28;20033;-69
2023/07/30 03:54:18;;;;;;;11.45;2.63;;;;;;;14.69;100.00;100759.44;5024452;28;20033;-69
2023/07/30 03:56:43;;;;;;;13.88;3.70;;;;;;;14.70;100.00;100767.09;5014247;28;20510;-69
2023/07/30 03:59:09;;;;;;;9.95;3.85;;;;;;;14.75;100.00;100766.56;5038323;28;20063;-68
2023/07/30 04:01:34;;;;;;;12.73;4.03;;;;;;;14.73;100.00;100760.69;5014917;28;21016;-69
2023/07/30 04:04:00;;;;;;;8.50;3.22;;;;;;;14.71;100.00;100757.44;5024068;28;20041;-68
2023/07/30 04:06:25;;;;;;;12.15;3.00;;;;;;;14.72;100.00;100767.72;5036531;28;20037;-69
2023/07/30 04:08:51;;;;;;;8.48;3.08;;;;;;;14.79;100.00;100771.22;5017101;28;20037;-69
2023/07/30 04:11:16;;;;;;;8.48;3.05;;;;;;;14.76;100.00;100773.38;5035288;28;20589;-69
2023/07/30 04:13:42;;;;;;;11.45;2.45;;;;;;;14.82;100.00;100775.25;5003258;28;20033;-69
2023/07/30 04:16:08;;;;;;;12.80;2.67;;;;;;;14.80;100.00;100777.22;5034934;28;20456;-69
2023/07/30 04:18:33;;;;;;;15.32;3.47;;;;;;;14.88;100.00;100779.75;5013536;28;20068;-69
2023/07/30 04:20:59;;;;;;;11.55;2.47;;;;;;;14.87;100.00;100778.13;5008383;28;20049;-69
2023/07/30 04:23:24;;;;;;;16.27;2.92;;;;;;;14.93;100.00;100779.97;5028460;28;20059;-69
2023/07/30 04:25:50;;;;;;;8.77;2.50;;;;;;;14.93;100.00;100779.97;5014404;28;20045;-69
2023/07/30 04:28:16;;;;;;;13.07;2.92;;;;;;;14.91;100.00;100775.94;5026514;28;20053;-69
2023/07/30 04:30:42;;;;;;;17.48;2.90;;;;;;;14.90;100.00;100793.41;5021011;28;20033;-69
2023/07/30 04:33:08;;;;;;;12.70;3.13;;;;;;;15.02;100.00;100783.28;5009827;28;20399;-69
2023/07/30 04:35:36;;;;;;;16.40;2.47;;;;;;;14.99;100.00;100781.88;5022125;28;20033;-69
2023/07/30 04:38:01;;;;;;;9.85;3.17;;;;;;;15.04;100.00;100783.91;5008801;28;20556;-69
2023/07/30 04:40:27;;;;;;;8.20;2.28;;;;;;;15.11;100.00;100782.19;5041541;28;20037;-69
2023/07/30 04:42:52;;;;;;;10.75;3.55;;;;;;;15.10;100.00;100795.41;5024078;28;20045;-70
2023/07/30 04:45:18;;;;;;;8.10;2.50;;;;;;;15.10;100.00;100793.63;5023028;28;20036;-69
2023/07/30 04:47:46;;;;;;;13.38;2.65;;;;;;;15.11;100.00;100790.03;5014340;28;20030;-69
2023/07/30 04:50:12;;;;;;;12.82;2.60;;;;;;;15.03;100.00;100784.94;5018213;28;20484;-69
2023/07/30 04:52:38;;;;;;;15.95;2.20;;;;;;;15.06;100.00;100802.00;5017610;28;20053;-69
2023/07/30 04:55:04;;;;;;;9.20;2.20;;;;;;;15.06;100.00;100791.56;5016355;28;20031;-69
2023/07/30 04:57:30;;;;;;;13.63;2.38;;;;;;;15.12;100.00;100790.81;5022051;28;20450;-69
2023/07/30 04:59:55;;;;;;;12.50;2.30;;;;;;;15.10;100.00;100798.84;5024920;28;20083;-69
2023/07/30 05:02:21;;;;;;;10.32;1.77;;;;;;;15.12;100.00;100786.41;5005733;28;20063;-70
2023/07/30 05:04:47;;;;;;;6.88;1.73;;;;;;;15.24;100.00;100798.97;5037757;28;20039;-69
2023/07/30 05:07:12;;;;;;;8.13;2.17;;;;;;;15.18;100.00;100801.34;5020065;28;20048;-69
2023/07/30 05:09:38;;;;;;;11.63;2.15;;;;;;;15.19;100.00;100797.72;5038903;28;20075;-69
2023/07/30 05:12:03;;;;;;;6.90;1.85;;;;;;;15.10;100.00;100805.88;5032065;28;20037;-69
2023/07/30 05:14:29;;;;;;;8.60;1.45;;;;;;;15.14;100.00;100797.50;5024475;28;20036;-69
2023/07/30 05:16:54;;;;;;;8.27;1.77;;;;;;;15.12;100.00;100793.44;5037403;28;20048;-69
2023/07/30 05:19:20;;;;;;;7.60;1.45;;;;;;;15.18;100.00;100793.50;5036203;28;20114;-69
2023/07/30 05:21:46;;;;;;;7.43;1.65;;;;;;;15.15;100.00;100785.22;5023816;28;20040;-69
2023/07/30 05:24:11;;;;;;;9.98;2.05;;;;;;;15.19;100.00;100795.13;5032854;28;20099;-69
2023/07/30 05:26:36;;;;;;;6.10;1.38;;;;;;;15.17;100.00;100791.88;5031782;28;20045;-70
2023/07/30 05:29:03;;;;;;;4.57;1.48;;;;;;;15.15;100.00;100801.72;5021440;28;20055;-69
2023/07/30 05:31:28;;;;;;;12.00;1.77;;;;;;;15.13;100.00;100801.09;5041445;28;20060;-69
2023/07/30 05:33:54;;;;;;;8.07;1.50;;;;;;;15.13;100.00;100795.88;5039459;28;20171;-69
2023/07/30 05:36:20;;;;;;;8.30;1.52;;;;;;;15.17;100.00;100797.09;5039862;28;20049;-69
2023/07/30 05:38:45;;;;;;;8.10;1.98;;;;;;;15.11;100.00;100797.84;5038845;28;20029;-68
2023/07/30 05:41:11;;;;;;;6.28;1.50;;;;;;;15.10;100.00;100805.88;5040997;28;20529;-69
2023/07/30 05:43:36;;;;;;;6.72;1.48;;;;;;;15.16;100.00;100797.28;5038779;28;20411;-69
2023/07/30 05:46:02;;;;;;;9.70;1.50;;;;;;;15.27;100.00;100799.41;5012488;28;20037;-69
2023/07/30 05:48:27;;;;;;;10.15;1.70;;;;;;;15.28;100.00;100797.63;5038793;28;20040;-69
2023/07/30 05:50:53;;;;;;;5.95;1.50;;;;;;;15.29;100.00;100809.66;5037212;28;20665;-68
2023/07/30 05:53:18;;;;;;;13.25;1.67;;;;;;;15.35;100.00;100809.75;5035352;28;20029;-69
2023/07/30 05:55:44;;;;;;;6.53;1.27;;;;;;;15.27;100.00;100815.06;5020916;28;20045;-69
2023/07/30 05:58:09;;;;;;;10.05;1.75;;;;;;;15.29;100.00;100813.09;5023701;28;20041;-69
2023/07/30 06:00:34;;;;;;;7.00;1.80;;;;;;;15.40;100.00;100810.97;5019101;28;20042;-70
2023/07/30 06:03:01;;;;;;;9.70;2.28;;;;;;;15.42;100.00;100807.19;5027815;28;20035;-68
2023/07/30 06:05:27;;;;;;;9.63;1.50;;;;;;;15.33;100.00;100805.69;5029669;28;20497;-69
2023/07/30 06:07:52;;;;;;;7.57;1.25;;;;;;;15.30;100.00;100808.69;5036650;28;20037;-69
2023/07/30 06:10:18;;;;;;;6.43;1.20;;;;;;;15.35;100.00;100816.75;5040111;28;20029;-69
2023/07/30 06:12:43;;;;;;;6.50;1.13;;;;;;;15.28;100.00;100814.09;5022466;28;20086;-69
2023/07/30 06:15:09;;;;;;;11.32;1.60;;;;;;;15.36;100.00;100826.22;5038019;28;20482;-69
2023/07/30 06:17:34;;;;;;;5.80;1.63;;;;;;;15.30;100.00;100819.13;5021994;28;20037;-69
2023/07/30 06:20:00;;;;;;;5.70;1.27;;;;;;;15.42;100.00;100822.84;5026207;28;20041;-69
2023/07/30 06:22:26;;;;;;;8.90;1.85;;;;;;;15.41;100.00;100817.81;5037115;28;20033;-69
2023/07/30 06:24:51;;;;;;;6.63;2.30;;;;;;;15.45;100.00;100816.47;5023590;28;20033;-70
2023/07/30 06:27:17;;;;;;;9.18;1.65;;;;;;;15.52;100.00;100812.91;5021578;28;20040;-69
2023/07/30 06:29:42;;;;;;;11.10;2.05;;;;;;;15.53;100.00;100813.72;5021554;28;20026;-69
2023/07/30 06:32:08;;;;;;;7.07;1.85;;;;;;;15.56;100.00;100818.56;5040656;28;20036;-69
2023/07/30 06:34:33;;;;;;;4.78;1.30;;;;;;;15.60;100.00;100816.38;5022573;28;20025;-69
2023/07/30 06:36:59;;;;;;;7.28;1.50;;;;;;;15.68;100.00;100816.25;5021943;28;20075;-69
2023/07/30 06:39:24;;;;;;;8.77;1.48;;;;;;;15.72;100.00;100820.09;5022425;28;20091;-69
2023/07/30 06:41:50;;;;;;;12.68;1.75;;;;;;;15.65;100.00;100817.44;5040740;28;20037;-70
2023/07/30 06:44:16;;;;;;;6.15;1.45;;;;;;;15.81;100.00;100810.34;5006538;28;20494;-69
2023/07/30 06:46:42;;;;;;;7.43;1.70;;;;;;;15.93;100.00;100817.44;5023216;28;20037;-69
2023/07/30 06:49:07;;;;;;;17.17;1.90;;;;;;;16.06;100.00;100824.59;5039220;28;20118;-69
2023/07/30 06:51:33;;;;;;;19.85;7.10;;;;;;;16.08;100.00;100821.78;5031039;28;20131;-69
2023/07/30 06:53:58;;;;;;;8.85;1.95;;;;;;;16.13;100.00;100825.44;5032794;28;20029;-69
2023/07/30 06:56:24;;;;;;;10.68;1.95;;;;;;;16.21;100.00;100827.09;5038102;28;20102;-69
2023/07/30 06:58:49;;;;;;;8.65;1.70;;;;;;;16.28;100.00;100827.94;5042055;28;20457;-69
2023/07/30 07:01:15;;;;;;;3.20;1.30;;;;;;;16.39;100.00;100831.84;5038124;28;20043;-69
2023/07/30 07:03:40;;;;;;;11.50;3.10;;;;;;;16.52;100.00;100838.94;5022046;28;21173;-69
2023/07/30 07:06:06;;;;;;;7.60;1.92;;;;;;;16.51;99.92;100840.75;5033767;28;20045;-69
2023/07/30 07:08:31;;;;;;;11.65;2.08;;;;;;;16.55;100.00;100841.97;5023153;28;20040;-69
2023/07/30 07:10:57;;;;;;;11.30;1.85;;;;;;;16.71;99.26;100837.41;4999057;28;20503;-69
2023/07/30 07:13:22;;;;;;;11.23;1.67;;;;;;;16.68;98.51;100840.41;5022810;28;20037;-69
2023/07/30 07:15:48;;;;;;;11.57;2.17;;;;;;;16.73;99.10;100838.03;5031989;28;20037;-69
2023/07/30 07:18:13;;;;;;;9.30;2.10;;;;;;;16.72;98.18;100828.56;5039824;28;20041;-69
2023/07/30 07:20:39;;;;;;;9.90;2.10;;;;;;;16.95;98.58;100830.06;5037770;28;20029;-69
2023/07/30 07:23:04;;;;;;;9.07;2.00;;;;;;;16.84;99.02;100839.28;5037748;28;20567;-69
2023/07/30 07:25:30;;;;;;;13.45;2.10;;;;;;;16.91;97.63;100840.94;5040200;28;20094;-69
2023/07/30 07:27:55;;;;;;;9.32;2.72;;;;;;;16.95;98.14;100840.53;5010111;28;20037;-69
2023/07/30 07:30:21;;;;;;;15.60;2.38;;;;;;;16.91;97.76;100848.81;5028013;28;20032;-69
2023/07/30 07:32:50;;;;;;;11.85;1.80;;;;;;;16.90;99.04;100851.63;5028065;28;20045;-69
2023/07/30 07:35:18;;;;;;;15.75;2.67;;;;;;;16.85;98.33;100857.44;5002818;28;20032;-69
2023/07/30 07:37:43;;;;;;;8.98;1.95;;;;;;;16.78;98.07;100853.94;5037864;28;20108;-69
2023/07/30 07:40:09;;;;;;;17.23;2.58;;;;;;;16.81;97.68;100863.25;5022116;28;20510;-69
2023/07/30 07:42:35;;;;;;;7.97;2.13;;;;;;;16.80;98.40;100859.00;5004548;28;20098;-69
2023/07/30 07:45:01;;;;;;;12.23;1.65;;;;;;;16.90;98.44;100854.25;5006576;28;20037;-69
2023/07/30 07:47:26;;;;;;;11.23;2.67;;;;;;;16.90;97.42;100862.91;5038555;28;20045;-69
2023/07/30 07:49:52;;;;;;;15.63;2.03;;;;;;;16.95;98.26;100854.44;5040389;28;20044;-69
2023/07/30 07:52:17;;;;;;;8.60;1.85;;;;;;;16.97;98.99;100856.88;5039627;28;20048;-69
2023/07/30 07:54:43;;;;;;;11.07;1.90;;;;;;;17.02;97.69;100870.97;5023606;28;20033;-69
2023/07/30 07:57:08;;;;;;;7.63;2.13;;;;;;;16.99;97.90;100873.19;5021567;28;20033;-69
2023/07/30 07:59:34;;;;;;;7.32;1.80;;;;;;;16.95;98.74;100872.75;5022385;28;20036;-69
2023/07/30 08:01:59;;;;;;;16.40;2.78;;;;;;;16.81;98.00;100876.31;5014513;28;20037;-69
2023/07/30 08:04:25;;;;;;;12.98;2.13;;;;;;;16.89;98.44;100869.13;5019779;28;20108;-69
2023/07/30 08:06:50;;;;;;;11.52;2.30;;;;;;;16.80;99.59;100864.22;5011177;28;20045;-69
2023/07/30 08:09:16;;;;;;;13.43;3.63;;;;;;;16.87;98.99;100871.13;5016830;28;20481;-69
2023/07/30 08:11:41;;;;;;;13.90;2.30;;;;;;;17.01;99.21;100873.78;5034285;28;20040;-69
2023/07/30 08:14:06;;;;;;;11.82;2.05;;;;;;;16.98;97.47;100872.38;5038695;28;20017;-69
2023/07/30 08:16:32;;;;;;;10.52;2.03;;;;;;;17.11;98.11;100867.19;5028924;28;20438;-69
2023/07/30 08:18:57;;;;;;;15.52;2.08;;;;;;;17.25;96.74;100860.19;5015530;28;20041;-69
2023/07/30 08:21:23;;;;;;;11.10;2.30;;;;;;;17.24;97.70;100858.56;5019805;28;20076;-69
2023/07/30 08:23:48;;;;;;;15.98;2.42;;;;;;;17.31;96.71;100864.63;5021615;28;20037;-69
2023/07/30 08:26:15;;;;;;;10.75;2.15;;;;;;;17.38;96.86;100867.25;5032426;28;20033;-69
2023/07/30 08:28:40;;;;;;;13.18;2.67;;;;;;;17.46;95.72;100881.97;5041399;28;20033;-69
2023/07/30 08:31:06;;;;;;;12.90;2.25;;;;;;;17.47;95.86;100879.16;5025936;28;20048;-69
2023/07/30 08:33:32;;;;;;;11.55;2.63;;;;;;;17.51;95.45;100885.59;5034872;28;20050;-69
2023/07/30 08:35:59;;;;;;;9.52;2.17;;;;;;;17.55;95.78;100880.78;5035044;28;20041;-69
2023/07/30 08:38:25;;;;;;;12.52;2.95;;;;;;;17.54;94.49;100881.78;5041821;28;20033;-69
2023/07/30 08:40:50;;;;;;;16.13;2.45;;;;;;;17.58;95.12;100871.72;5030099;28;20514;-69
2023/07/30 08:43:17;;;;;;;10.07;2.53;;;;;;;17.50;94.12;100872.72;5038478;28;20048;-69
2023/07/30 08:45:43;;;;;;;10.68;2.25;;;;;;;17.55;92.59;100872.13;5032287;28;20041;-68
2023/07/30 08:48:08;;;;;;;13.18;2.63;;;;;;;17.61;93.18;100873.94;5016893;28;20450;-69
2023/07/30 08:50:35;;;;;;;11.82;1.98;;;;;;;17.76;92.22;100868.50;5022117;28;20125;-69
2023/07/30 08:53:02;;;;;;;13.27;3.10;;;;;;;17.76;91.15;100868.50;5033067;28;20312;-69
2023/07/30 08:55:29;;;;;;;13.68;2.33;;;;;;;18.08;89.47;100872.13;5044676;28;20406;-69
2023/07/30 08:57:57;;;;;;;11.68;2.22;;;;;;;18.34;88.80;100876.53;5026003;28;20163;-69
2023/07/30 09:00:25;;;;;;;11.82;2.30;;;;;;;18.45;88.18;100877.72;5024625;28;20033;-69
2023/07/30 09:02:58;;;;;;;12.40;2.08;;;;;;;18.63;86.77;100892.84;5011864;28;21490;-69
2023/07/30 09:05:25;;;;;;;17.80;2.08;;;;;;;19.25;82.85;100886.13;5032710;28;20087;-69
2023/07/30 09:07:50;;;;;;;13.63;2.10;;;;;;;20.00;80.29;100890.66;5042114;28;20041;-69
2023/07/30 09:10:16;;;;;;;15.02;2.63;;;;;;;20.42;77.19;100885.59;5024030;28;20037;-70
2023/07/30 09:12:41;;;;;;;10.80;2.20;;;;;;;20.22;76.79;100891.03;5038162;28;20037;-70
2023/07/30 09:15:07;;;;;;;9.57;1.80;;;;;;;20.37;76.71;100897.81;5016509;28;20562;-69
2023/07/30 09:17:34;;;;;;;11.77;1.98;;;;;;;20.21;76.40;100892.09;5039139;28;20109;-69
2023/07/30 09:20:00;;;;;;;14.00;3.10;;;;;;;20.88;77.00;100886.09;5041591;28;20484;-69
2023/07/30 09:22:33;;;;;;;7.72;1.58;;;;;;;21.17;72.85;100876.59;5033734;28;20128;-69
2023/07/30 09:25:02;;;;;;;18.95;1.98;;;;;;;21.07;72.49;100886.06;5029803;28;20061;-69
2023/07/30 09:27:28;;;;;;;8.73;1.42;;;;;;;21.13;70.91;100878.03;5018967;28;20029;-69
2023/07/30 09:29:58;;;;;;;9.63;1.70;;;;;;;21.43;70.28;100884.34;5043398;28;20037;-70
2023/07/30 09:32:34;;;;;;;11.38;1.92;;;;;;;21.45;70.95;100882.31;5040993;28;20474;-70
2023/07/30 09:35:10;;;;;;;8.80;2.22;;;;;;;21.37;74.00;100881.56;5022712;28;20037;-69
2023/07/30 09:37:38;;;;;;;9.93;1.92;;;;;;;20.94;72.66;100884.41;5041440;28;20049;-69
2023/07/30 09:40:05;;;;;;;11.30;2.40;;;;;;;20.76;73.28;100882.63;5038113;28;20155;-70
2023/07/30 09:42:33;;;;;;;8.50;1.63;;;;;;;20.90;75.06;100875.34;5023922;28;20041;-69
2023/07/30 09:45:00;;;;;;;6.25;1.80;;;;;;;21.42;71.68;100886.19;5036596;28;20029;-69
2023/07/30 09:47:30;;;;;;;12.18;1.63;;;;;;;21.66;69.99;100896.78;5021631;28;20041;-70
2023/07/30 09:49:56;;;;;;;10.73;2.05;;;;;;;21.55;69.07;100890.47;5040149;28;20056;-69
2023/07/30 09:52:21;;;;;;;8.82;1.75;;;;;;;21.54;67.93;100884.38;5037226;28;20060;-69
2023/07/30 09:54:49;;;;;;;12.38;1.95;;;;;;;21.53;68.85;100888.06;5041344;28;20025;-69
2023/07/30 09:57:15;;;;;;;10.57;1.75;;;;;;;21.44;68.77;100883.31;5040527;28;20033;-69
2023/07/30 09:59:41;;;;;;;8.05;1.48;;;;;;;21.48;67.57;100872.09;5040936;28;20737;-69
2023/07/30 10:02:09;;;;;;;10.27;1.80;;;;;;;21.16;67.04;100882.88;5031573;28;20549;-69
2023/07/30 10:04:40;;;;;;;9.13;1.50;;;;;;;20.98;68.40;100882.91;5042030;28;20472;-69
2023/07/30 10:07:10;;;;;;;10.48;2.17;;;;;;;20.95;67.64;100886.03;5019989;28;20048;-69
2023/07/30 10:09:43;;;;;;;9.98;1.60;;;;;;;20.66;68.67;100880.47;5040884;28;20406;-69
2023/07/30 10:12:12;;;;;;;8.10;1.50;;;;;;;20.73;69.55;100877.78;5041175;28;20450;-69
2023/07/30 10:14:38;;;;;;;12.48;2.10;;;;;;;21.16;68.55;100882.88;5041979;28;20033;-69
2023/07/30 10:17:04;;;;;;;5.97;1.77;;;;;;;21.71;65.85;100881.09;5017283;28;20090;-69
2023/07/30 10:19:29;;;;;;;7.90;1.50;;;;;;;22.07;63.64;100887.97;5020166;28;20025;-69
2023/07/30 10:22:17;;;;;;;7.35;1.48;;;;;;;22.64;62.87;100873.34;5038021;28;20045;-69
2023/07/30 10:24:58;;;;;;;9.70;1.90;;;;;;;22.48;61.82;100870.41;5014512;28;20111;-69
2023/07/30 10:27:38;;;;;;;3.97;1.00;;;;;;;22.80;59.71;100867.31;5038441;28;20049;-69
2023/07/30 10:30:14;;;;;;;8.70;1.67;;;;;;;22.29;60.73;100876.88;5021778;28;20532;-69
2023/07/30 10:32:55;;;;;;;11.00;3.35;;;;;;;22.25;61.52;100873.88;5023697;28;20055;-69
2023/07/30 10:35:38;;;;;;;7.03;1.67;;;;;;;21.75;62.44;100877.75;5022086;28;20044;-69
2023/07/30 10:38:24;;;;;;;7.63;1.45;;;;;;;21.37;64.06;100886.03;5021061;28;20040;-70
2023/07/30 10:41:17;;;;;;;12.85;1.40;;;;;;;21.21;66.00;100887.50;5027547;28;20041;-69
2023/07/30 10:43:47;;;;;;;8.30;1.40;;;;;;;21.37;66.19;100888.69;5022486;28;20147;-69
2023/07/30 10:46:15;;;;;;;8.35;1.60;;;;;;;21.76;66.73;100891.78;5039383;28;20109;-69
2023/07/30 10:48:45;;;;;;;12.45;2.28;;;;;;;21.82;63.71;100882.94;5043257;28;20036;-69
2023/07/30 10:51:16;;;;;;;10.52;2.17;;;;;;;21.86;63.17;100881.44;5007304;28;20041;-69
2023/07/30 10:53:43;;;;;;;9.32;1.80;;;;;;;21.73;64.63;100893.00;5041511;28;20033;-69
2023/07/30 10:56:09;;;;;;;9.23;1.38;;;;;;;21.59;63.66;100896.91;5040043;28;20040;-69
2023/07/30 10:58:36;;;;;;;4.13;1.60;;;;;;;21.32;63.21;100899.09;5024375;28;20110;-69
2023/07/30 11:01:06;;;;;;;5.72;1.60;;;;;;;21.44;64.38;100892.06;5017615;28;20045;-70
2023/07/30 11:03:33;;;;;;;10.25;1.75;;;;;;;21.52;64.91;100897.00;5035343;28;20044;-69
2023/07/30 11:05:59;;;;;;;7.65;1.20;;;;;;;21.42;64.36;100907.28;5027139;28;20040;-69
2023/07/30 11:08:37;;;;;;;6.32;1.27;;;;;;;21.15;65.41;100909.47;5038641;28;20041;-69
2023/07/30 11:11:04;;;;;;;12.00;1.75;;;;;;;21.12;64.42;100916.00;5037859;28;20425;-69
2023/07/30 11:13:38;;;;;;;11.35;1.35;;;;;;;21.17;63.83;100905.59;5021146;28;20037;-69